sensor_id;sensor_type;location;lat;lon;timestamp;pressure;altitude;pressure_sealevel;temperature
68510;BMP180;55512;50.102;19.958;2023-05-29T00:00:14;98938.00;;;13.50
68510;BMP180;55512;50.102;19.958;2023-05-29T00:02:44;98936.80;;;13.40
68510;BMP180;55512;50.102;19.958;2023-05-29T00:05:11;98936.80;;;13.40
68510;BMP180;55512;50.102;19.958;2023-05-29T00:07:38;98935.80;;;13.30
68510;BMP180;55512;50.102;19.958;2023-05-29T00:10:05;98930.60;;;13.30
68510;BMP180;55512;50.102;19.958;2023-05-29T00:12:32;98930.60;;;13.30
68510;BMP180;55512;50.102;19.958;2023-05-29T00:14:57;98932.80;;;13.30
68510;BMP180;55512;50.102;19.958;2023-05-29T00:17:23;98934.80;;;13.30
68510;BMP180;55512;50.102;19.958;2023-05-29T00:19:49;98933.60;;;13.30
68510;BMP180;55512;50.102;19.958;2023-05-29T00:22:15;98932.20;;;13.30
68510;BMP180;55512;50.102;19.958;2023-05-29T00:24:40;98926.40;;;13.20
68510;BMP180;55512;50.102;19.958;2023-05-29T00:27:06;98926.00;;;13.20
68510;BMP180;55512;50.102;19.958;2023-05-29T00:29:31;98931.60;;;13.10
68510;BMP180;55512;50.102;19.958;2023-05-29T00:31:57;98928.80;;;13.06
68510;BMP180;55512;50.102;19.958;2023-05-29T00:34:23;98925.20;;;13.00
68510;BMP180;55512;50.102;19.958;2023-05-29T00:36:49;98924.40;;;13.00
68510;BMP180;55512;50.102;19.958;2023-05-29T00:39:14;98926.80;;;12.94
68510;BMP180;55512;50.102;19.958;2023-05-29T00:41:41;98926.80;;;12.90
68510;BMP180;55512;50.102;19.958;2023-05-29T00:44:06;98926.40;;;12.90
68510;BMP180;55512;50.102;19.958;2023-05-29T00:46:33;98922.80;;;12.82
68510;BMP180;55512;50.102;19.958;2023-05-29T00:49:00;98917.20;;;12.80
68510;BMP180;55512;50.102;19.958;2023-05-29T00:51:28;98919.80;;;12.80
68510;BMP180;55512;50.102;19.958;2023-05-29T00:53:54;98915.60;;;12.70
68510;BMP180;55512;50.102;19.958;2023-05-29T00:56:21;98914.80;;;12.70
68510;BMP180;55512;50.102;19.958;2023-05-29T00:58:50;98913.60;;;12.60
68510;BMP180;55512;50.102;19.958;2023-05-29T01:01:18;98908.60;;;12.60
68510;BMP180;55512;50.102;19.958;2023-05-29T01:03:44;98906.40;;;12.60
68510;BMP180;55512;50.102;19.958;2023-05-29T01:06:10;98903.60;;;12.60
68510;BMP180;55512;50.102;19.958;2023-05-29T01:08:36;98901.80;;;12.60
68510;BMP180;55512;50.102;19.958;2023-05-29T01:13:46;98900.60;;;12.60
68510;BMP180;55512;50.102;19.958;2023-05-29T01:16:35;98903.40;;;12.50
68510;BMP180;55512;50.102;19.958;2023-05-29T01:27:10;98902.60;;;12.40
68510;BMP180;55512;50.102;19.958;2023-05-29T01:29:39;98902.20;;;12.38
68510;BMP180;55512;50.102;19.958;2023-05-29T01:32:07;98902.20;;;12.30
68510;BMP180;55512;50.102;19.958;2023-05-29T01:34:33;98898.40;;;12.30
68510;BMP180;55512;50.102;19.958;2023-05-29T01:36:58;98898.40;;;12.30
68510;BMP180;55512;50.102;19.958;2023-05-29T01:39:25;98903.60;;;12.30
68510;BMP180;55512;50.102;19.958;2023-05-29T01:41:51;98898.40;;;12.20
68510;BMP180;55512;50.102;19.958;2023-05-29T01:44:18;98899.00;;;12.20
68510;BMP180;55512;50.102;19.958;2023-05-29T01:46:45;98895.00;;;12.20
68510;BMP180;55512;50.102;19.958;2023-05-29T01:49:12;98895.60;;;12.20
68510;BMP180;55512;50.102;19.958;2023-05-29T01:51:39;98897.40;;;12.18
68510;BMP180;55512;50.102;19.958;2023-05-29T01:54:06;98894.20;;;12.10
68510;BMP180;55512;50.102;19.958;2023-05-29T01:56:32;98891.20;;;12.10
68510;BMP180;55512;50.102;19.958;2023-05-29T01:59:00;98890.80;;;12.16
68510;BMP180;55512;50.102;19.958;2023-05-29T02:01:27;98888.40;;;12.20
68510;BMP180;55512;50.102;19.958;2023-05-29T02:03:52;98891.20;;;12.12
68510;BMP180;55512;50.102;19.958;2023-05-29T02:06:18;98887.60;;;12.10
68510;BMP180;55512;50.102;19.958;2023-05-29T02:08:43;98885.20;;;12.10
68510;BMP180;55512;50.102;19.958;2023-05-29T02:11:09;98884.40;;;12.10
68510;BMP180;55512;50.102;19.958;2023-05-29T02:13:34;98883.00;;;12.10
68510;BMP180;55512;50.102;19.958;2023-05-29T02:16:00;98884.20;;;12.10
68510;BMP180;55512;50.102;19.958;2023-05-29T02:18:26;98881.80;;;12.00
68510;BMP180;55512;50.102;19.958;2023-05-29T02:20:51;98885.40;;;12.00
68510;BMP180;55512;50.102;19.958;2023-05-29T02:23:17;98883.80;;;12.00
68510;BMP180;55512;50.102;19.958;2023-05-29T02:25:46;98882.20;;;11.92
68510;BMP180;55512;50.102;19.958;2023-05-29T02:28:11;98879.20;;;11.90
68510;BMP180;55512;50.102;19.958;2023-05-29T02:30:37;98880.40;;;11.90
68510;BMP180;55512;50.102;19.958;2023-05-29T02:33:02;98874.80;;;11.82
68510;BMP180;55512;50.102;19.958;2023-05-29T02:35:28;98872.80;;;11.80
68510;BMP180;55512;50.102;19.958;2023-05-29T02:37:53;98879.20;;;11.80
68510;BMP180;55512;50.102;19.958;2023-05-29T02:40:20;98879.40;;;11.80
68510;BMP180;55512;50.102;19.958;2023-05-29T02:42:46;98879.20;;;11.80
68510;BMP180;55512;50.102;19.958;2023-05-29T02:45:12;98879.00;;;11.80
68510;BMP180;55512;50.102;19.958;2023-05-29T02:47:37;98877.20;;;11.72
68510;BMP180;55512;50.102;19.958;2023-05-29T02:50:04;98878.80;;;11.70
68510;BMP180;55512;50.102;19.958;2023-05-29T02:52:32;98874.80;;;11.74
68510;BMP180;55512;50.102;19.958;2023-05-29T02:54:57;98875.00;;;11.72
68510;BMP180;55512;50.102;19.958;2023-05-29T02:57:24;98876.80;;;11.70
68510;BMP180;55512;50.102;19.958;2023-05-29T02:59:50;98873.00;;;11.70
68510;BMP180;55512;50.102;19.958;2023-05-29T03:02:19;98871.20;;;11.66
68510;BMP180;55512;50.102;19.958;2023-05-29T03:04:45;98871.60;;;11.60
68510;BMP180;55512;50.102;19.958;2023-05-29T03:07:10;98873.80;;;11.60
68510;BMP180;55512;50.102;19.958;2023-05-29T03:09:36;98869.80;;;11.60
68510;BMP180;55512;50.102;19.958;2023-05-29T03:12:02;98868.00;;;11.60
68510;BMP180;55512;50.102;19.958;2023-05-29T03:14:28;98866.60;;;11.60
68510;BMP180;55512;50.102;19.958;2023-05-29T03:16:54;98870.40;;;11.60
68510;BMP180;55512;50.102;19.958;2023-05-29T03:19:20;98870.20;;;11.60
68510;BMP180;55512;50.102;19.958;2023-05-29T03:21:46;98869.60;;;11.58
68510;BMP180;55512;50.102;19.958;2023-05-29T03:24:12;98865.40;;;11.58
68510;BMP180;55512;50.102;19.958;2023-05-29T03:26:40;98862.60;;;11.54
68510;BMP180;55512;50.102;19.958;2023-05-29T03:29:05;98864.40;;;11.52
68510;BMP180;55512;50.102;19.958;2023-05-29T03:31:31;98870.40;;;11.60
68510;BMP180;55512;50.102;19.958;2023-05-29T03:33:59;98872.60;;;11.60
68510;BMP180;55512;50.102;19.958;2023-05-29T03:36:25;98878.20;;;11.60
68510;BMP180;55512;50.102;19.958;2023-05-29T03:38:50;98879.40;;;11.60
68510;BMP180;55512;50.102;19.958;2023-05-29T03:41:16;98877.20;;;11.60
68510;BMP180;55512;50.102;19.958;2023-05-29T03:43:41;98874.40;;;11.60
68510;BMP180;55512;50.102;19.958;2023-05-29T03:46:07;98875.20;;;11.60
68510;BMP180;55512;50.102;19.958;2023-05-29T03:48:32;98882.00;;;11.60
68510;BMP180;55512;50.102;19.958;2023-05-29T03:50:58;98884.20;;;11.60
68510;BMP180;55512;50.102;19.958;2023-05-29T03:53:24;98886.60;;;11.60
68510;BMP180;55512;50.102;19.958;2023-05-29T03:55:49;98886.80;;;11.64
68510;BMP180;55512;50.102;19.958;2023-05-29T03:58:14;98888.40;;;11.70
68510;BMP180;55512;50.102;19.958;2023-05-29T04:00:41;98884.60;;;11.70
68510;BMP180;55512;50.102;19.958;2023-05-29T04:03:06;98893.00;;;11.70
68510;BMP180;55512;50.102;19.958;2023-05-29T04:05:32;98887.80;;;11.80
68510;BMP180;55512;50.102;19.958;2023-05-29T04:07:57;98886.60;;;11.80
68510;BMP180;55512;50.102;19.958;2023-05-29T04:10:23;98889.40;;;11.80
68510;BMP180;55512;50.102;19.958;2023-05-29T04:12:50;98890.40;;;11.88
68510;BMP180;55512;50.102;19.958;2023-05-29T04:15:16;98889.80;;;11.90
68510;BMP180;55512;50.102;19.958;2023-05-29T04:17:41;98888.40;;;11.90
68510;BMP180;55512;50.102;19.958;2023-05-29T04:20:07;98889.00;;;11.90
68510;BMP180;55512;50.102;19.958;2023-05-29T04:22:36;98887.00;;;12.00
68510;BMP180;55512;50.102;19.958;2023-05-29T04:25:03;98891.80;;;12.00
68510;BMP180;55512;50.102;19.958;2023-05-29T04:27:32;98892.60;;;12.10
68510;BMP180;55512;50.102;19.958;2023-05-29T04:30:06;98890.20;;;12.10
68510;BMP180;55512;50.102;19.958;2023-05-29T04:32:32;98893.20;;;12.20
68510;BMP180;55512;50.102;19.958;2023-05-29T04:35:01;98894.00;;;12.30
68510;BMP180;55512;50.102;19.958;2023-05-29T04:37:32;98895.20;;;12.32
68510;BMP180;55512;50.102;19.958;2023-05-29T04:40:07;98892.00;;;12.40
68510;BMP180;55512;50.102;19.958;2023-05-29T04:42:35;98895.20;;;12.50
68510;BMP180;55512;50.102;19.958;2023-05-29T04:45:03;98894.80;;;12.58
68510;BMP180;55512;50.102;19.958;2023-05-29T04:47:30;98896.40;;;12.60
68510;BMP180;55512;50.102;19.958;2023-05-29T04:49:59;98898.60;;;12.70
68510;BMP180;55512;50.102;19.958;2023-05-29T04:52:25;98896.00;;;12.80
68510;BMP180;55512;50.102;19.958;2023-05-29T04:54:50;98897.20;;;12.90
68510;BMP180;55512;50.102;19.958;2023-05-29T04:57:16;98897.00;;;12.98
68510;BMP180;55512;50.102;19.958;2023-05-29T04:59:41;98896.60;;;13.06
68510;BMP180;55512;50.102;19.958;2023-05-29T05:02:07;98899.60;;;13.14
68510;BMP180;55512;50.102;19.958;2023-05-29T05:04:32;98897.00;;;13.20
68510;BMP180;55512;50.102;19.958;2023-05-29T05:06:58;98896.60;;;13.30
68510;BMP180;55512;50.102;19.958;2023-05-29T05:09:23;98895.20;;;13.40
68510;BMP180;55512;50.102;19.958;2023-05-29T05:11:49;98895.00;;;13.50
68510;BMP180;55512;50.102;19.958;2023-05-29T05:14:14;98894.00;;;13.60
68510;BMP180;55512;50.102;19.958;2023-05-29T05:16:40;98891.80;;;13.70
68510;BMP180;55512;50.102;19.958;2023-05-29T05:19:05;98892.40;;;13.80
68510;BMP180;55512;50.102;19.958;2023-05-29T05:21:31;98895.40;;;13.90
68510;BMP180;55512;50.102;19.958;2023-05-29T05:23:58;98896.60;;;14.00
68510;BMP180;55512;50.102;19.958;2023-05-29T05:26:23;98899.00;;;14.10
68510;BMP180;55512;50.102;19.958;2023-05-29T05:28:50;98896.00;;;14.20
68510;BMP180;55512;50.102;19.958;2023-05-29T05:31:16;98900.00;;;14.30
68510;BMP180;55512;50.102;19.958;2023-05-29T05:33:41;98904.00;;;14.40
68510;BMP180;55512;50.102;19.958;2023-05-29T05:36:07;98907.40;;;14.50
68510;BMP180;55512;50.102;19.958;2023-05-29T05:38:32;98912.60;;;14.60
68510;BMP180;55512;50.102;19.958;2023-05-29T05:40:58;98916.00;;;14.70
68510;BMP180;55512;50.102;19.958;2023-05-29T05:43:23;98917.60;;;14.80
68510;BMP180;55512;50.102;19.958;2023-05-29T05:45:51;98913.60;;;14.90
68510;BMP180;55512;50.102;19.958;2023-05-29T05:48:17;98917.80;;;14.90
68510;BMP180;55512;50.102;19.958;2023-05-29T05:50:42;98917.60;;;15.00
68510;BMP180;55512;50.102;19.958;2023-05-29T05:53:07;98919.40;;;15.10
68510;BMP180;55512;50.102;19.958;2023-05-29T05:55:33;98918.40;;;15.20
68510;BMP180;55512;50.102;19.958;2023-05-29T05:57:58;98913.60;;;15.30
68510;BMP180;55512;50.102;19.958;2023-05-29T06:00:24;98911.60;;;15.40
68510;BMP180;55512;50.102;19.958;2023-05-29T06:02:49;98914.60;;;15.50
68510;BMP180;55512;50.102;19.958;2023-05-29T06:05:15;98917.60;;;15.56
68510;BMP180;55512;50.102;19.958;2023-05-29T06:07:41;98919.00;;;15.62
68510;BMP180;55512;50.102;19.958;2023-05-29T06:10:07;98926.40;;;15.70
68510;BMP180;55512;50.102;19.958;2023-05-29T06:12:34;98924.60;;;15.76
68510;BMP180;55512;50.102;19.958;2023-05-29T06:15:00;98925.60;;;15.82
68510;BMP180;55512;50.102;19.958;2023-05-29T06:17:25;98925.20;;;15.90
68510;BMP180;55512;50.102;19.958;2023-05-29T06:19:52;98927.80;;;16.00
68510;BMP180;55512;50.102;19.958;2023-05-29T06:22:19;98933.00;;;16.08
68510;BMP180;55512;50.102;19.958;2023-05-29T06:24:44;98932.00;;;16.10
68510;BMP180;55512;50.102;19.958;2023-05-29T06:27:09;98938.20;;;16.20
68510;BMP180;55512;50.102;19.958;2023-05-29T06:29:35;98941.60;;;16.30
68510;BMP180;55512;50.102;19.958;2023-05-29T06:32:01;98943.40;;;16.34
68510;BMP180;55512;50.102;19.958;2023-05-29T06:34:27;98943.60;;;16.40
68510;BMP180;55512;50.102;19.958;2023-05-29T06:36:52;98941.60;;;16.50
68510;BMP180;55512;50.102;19.958;2023-05-29T06:39:18;98940.20;;;16.60
68510;BMP180;55512;50.102;19.958;2023-05-29T06:41:46;98949.00;;;16.70
68510;BMP180;55512;50.102;19.958;2023-05-29T06:44:11;98951.20;;;16.78
68510;BMP180;55512;50.102;19.958;2023-05-29T06:46:37;98953.40;;;16.82
68510;BMP180;55512;50.102;19.958;2023-05-29T06:49:02;98959.20;;;16.92
68510;BMP180;55512;50.102;19.958;2023-05-29T06:51:28;98960.80;;;17.00
68510;BMP180;55512;50.102;19.958;2023-05-29T06:53:53;98964.20;;;17.10
68510;BMP180;55512;50.102;19.958;2023-05-29T06:56:18;98965.00;;;17.10
68510;BMP180;55512;50.102;19.958;2023-05-29T06:58:44;98965.60;;;17.18
68510;BMP180;55512;50.102;19.958;2023-05-29T07:01:11;98967.20;;;17.20
68510;BMP180;55512;50.102;19.958;2023-05-29T07:03:36;98967.40;;;17.30
68510;BMP180;55512;50.102;19.958;2023-05-29T07:06:02;98974.60;;;17.40
68510;BMP180;55512;50.102;19.958;2023-05-29T07:08:28;98975.40;;;17.50
68510;BMP180;55512;50.102;19.958;2023-05-29T07:10:53;98976.60;;;17.58
68510;BMP180;55512;50.102;19.958;2023-05-29T07:13:19;98979.20;;;17.60
68510;BMP180;55512;50.102;19.958;2023-05-29T07:15:45;98981.80;;;17.70
68510;BMP180;55512;50.102;19.958;2023-05-29T07:18:11;98984.00;;;17.80
68510;BMP180;55512;50.102;19.958;2023-05-29T07:20:37;98979.60;;;17.80
68510;BMP180;55512;50.102;19.958;2023-05-29T07:23:02;98984.20;;;17.90
68510;BMP180;55512;50.102;19.958;2023-05-29T07:25:29;98986.20;;;17.96
68510;BMP180;55512;50.102;19.958;2023-05-29T07:27:56;98983.80;;;18.08
68510;BMP180;55512;50.102;19.958;2023-05-29T07:30:21;98979.20;;;18.12
68510;BMP180;55512;50.102;19.958;2023-05-29T07:32:47;98985.00;;;18.20
68510;BMP180;55512;50.102;19.958;2023-05-29T07:35:12;98988.60;;;18.30
68510;BMP180;55512;50.102;19.958;2023-05-29T07:37:38;98991.00;;;18.36
68510;BMP180;55512;50.102;19.958;2023-05-29T07:40:04;98986.40;;;18.42
68510;BMP180;55512;50.102;19.958;2023-05-29T07:42:33;98990.00;;;18.50
68510;BMP180;55512;50.102;19.958;2023-05-29T07:44:59;98990.80;;;18.60
68510;BMP180;55512;50.102;19.958;2023-05-29T07:47:25;98988.20;;;18.70
68510;BMP180;55512;50.102;19.958;2023-05-29T07:49:51;98992.60;;;18.80
68510;BMP180;55512;50.102;19.958;2023-05-29T07:52:17;98992.00;;;18.90
68510;BMP180;55512;50.102;19.958;2023-05-29T07:54:43;98992.20;;;18.98
68510;BMP180;55512;50.102;19.958;2023-05-29T07:57:09;98992.00;;;19.00
68510;BMP180;55512;50.102;19.958;2023-05-29T07:59:41;98994.40;;;19.10
68510;BMP180;55512;50.102;19.958;2023-05-29T08:02:07;98993.60;;;19.14
68510;BMP180;55512;50.102;19.958;2023-05-29T08:04:33;98996.00;;;19.20
68510;BMP180;55512;50.102;19.958;2023-05-29T08:07:02;98998.60;;;19.30
68510;BMP180;55512;50.102;19.958;2023-05-29T08:09:31;98999.20;;;19.40
68510;BMP180;55512;50.102;19.958;2023-05-29T08:11:57;98999.80;;;19.50
68510;BMP180;55512;50.102;19.958;2023-05-29T08:14:22;99000.60;;;19.50
68510;BMP180;55512;50.102;19.958;2023-05-29T08:16:48;98998.40;;;19.50
68510;BMP180;55512;50.102;19.958;2023-05-29T08:19:14;98997.80;;;19.60
68510;BMP180;55512;50.102;19.958;2023-05-29T08:21:39;99001.60;;;19.66
68510;BMP180;55512;50.102;19.958;2023-05-29T08:24:05;98996.60;;;19.74
68510;BMP180;55512;50.102;19.958;2023-05-29T08:26:31;98996.80;;;19.80
68510;BMP180;55512;50.102;19.958;2023-05-29T08:28:57;98993.20;;;19.80
68510;BMP180;55512;50.102;19.958;2023-05-29T08:31:22;98991.00;;;19.90
68510;BMP180;55512;50.102;19.958;2023-05-29T08:33:51;98993.20;;;20.00
68510;BMP180;55512;50.102;19.958;2023-05-29T08:36:17;98995.60;;;20.10
68510;BMP180;55512;50.102;19.958;2023-05-29T08:38:43;98996.20;;;20.14
68510;BMP180;55512;50.102;19.958;2023-05-29T08:41:19;98997.40;;;20.18
68510;BMP180;55512;50.102;19.958;2023-05-29T08:43:47;98999.80;;;20.12
68510;BMP180;55512;50.102;19.958;2023-05-29T08:46:14;98995.60;;;20.20
68510;BMP180;55512;50.102;19.958;2023-05-29T08:48:43;98996.80;;;20.20
68510;BMP180;55512;50.102;19.958;2023-05-29T08:51:14;99001.80;;;20.32
68510;BMP180;55512;50.102;19.958;2023-05-29T08:53:40;98999.20;;;20.50
68510;BMP180;55512;50.102;19.958;2023-05-29T08:56:05;98998.00;;;20.60
68510;BMP180;55512;50.102;19.958;2023-05-29T08:58:33;98994.80;;;20.70
68510;BMP180;55512;50.102;19.958;2023-05-29T09:00:59;98996.20;;;20.88
68510;BMP180;55512;50.102;19.958;2023-05-29T09:03:26;98992.00;;;21.00
68510;BMP180;55512;50.102;19.958;2023-05-29T09:05:58;98996.00;;;21.10
68510;BMP180;55512;50.102;19.958;2023-05-29T09:08:29;98995.40;;;21.20
68510;BMP180;55512;50.102;19.958;2023-05-29T09:10:55;98996.00;;;21.22
68510;BMP180;55512;50.102;19.958;2023-05-29T09:13:22;98992.40;;;21.14
68510;BMP180;55512;50.102;19.958;2023-05-29T09:15:47;98988.60;;;21.16
68510;BMP180;55512;50.102;19.958;2023-05-29T09:18:16;98993.20;;;21.20
68510;BMP180;55512;50.102;19.958;2023-05-29T09:20:42;98986.80;;;21.30
68510;BMP180;55512;50.102;19.958;2023-05-29T09:23:09;98993.80;;;21.42
68510;BMP180;55512;50.102;19.958;2023-05-29T09:25:40;98989.60;;;21.60
68510;BMP180;55512;50.102;19.958;2023-05-29T09:28:08;98990.40;;;21.70
68510;BMP180;55512;50.102;19.958;2023-05-29T09:30:48;98987.40;;;21.80
68510;BMP180;55512;50.102;19.958;2023-05-29T09:33:15;98987.40;;;21.84
68510;BMP180;55512;50.102;19.958;2023-05-29T09:35:44;98986.60;;;21.80
68510;BMP180;55512;50.102;19.958;2023-05-29T09:38:16;98988.80;;;21.70
68510;BMP180;55512;50.102;19.958;2023-05-29T09:40:43;98989.00;;;21.80
68510;BMP180;55512;50.102;19.958;2023-05-29T09:43:19;98987.60;;;21.82
68510;BMP180;55512;50.102;19.958;2023-05-29T09:45:47;98990.40;;;21.96
68510;BMP180;55512;50.102;19.958;2023-05-29T09:48:17;98986.60;;;22.02
68510;BMP180;55512;50.102;19.958;2023-05-29T09:50:44;98985.40;;;22.10
68510;BMP180;55512;50.102;19.958;2023-05-29T09:53:24;98987.60;;;22.20
68510;BMP180;55512;50.102;19.958;2023-05-29T09:55:55;98991.40;;;22.30
68510;BMP180;55512;50.102;19.958;2023-05-29T09:58:24;98985.60;;;22.40
68510;BMP180;55512;50.102;19.958;2023-05-29T10:00:52;98985.40;;;22.50
68510;BMP180;55512;50.102;19.958;2023-05-29T10:03:19;98989.40;;;22.58
68510;BMP180;55512;50.102;19.958;2023-05-29T10:05:51;98992.40;;;22.60
68510;BMP180;55512;50.102;19.958;2023-05-29T10:08:19;98996.80;;;22.70
68510;BMP180;55512;50.102;19.958;2023-05-29T10:10:52;98989.00;;;22.78
68510;BMP180;55512;50.102;19.958;2023-05-29T10:13:22;98992.00;;;22.80
68510;BMP180;55512;50.102;19.958;2023-05-29T10:15:51;98991.60;;;22.80
68510;BMP180;55512;50.102;19.958;2023-05-29T10:18:36;98993.20;;;22.80
68510;BMP180;55512;50.102;19.958;2023-05-29T10:21:02;98994.20;;;22.90
68510;BMP180;55512;50.102;19.958;2023-05-29T10:23:30;98985.60;;;22.90
68510;BMP180;55512;50.102;19.958;2023-05-29T10:26:10;98987.00;;;22.90
68510;BMP180;55512;50.102;19.958;2023-05-29T10:28:44;98987.40;;;22.90
68510;BMP180;55512;50.102;19.958;2023-05-29T10:31:26;98987.60;;;23.00
68510;BMP180;55512;50.102;19.958;2023-05-29T10:37:21;98981.40;;;23.10
68510;BMP180;55512;50.102;19.958;2023-05-29T10:39:51;98982.20;;;23.10
68510;BMP180;55512;50.102;19.958;2023-05-29T10:45:09;98979.60;;;23.10
68510;BMP180;55512;50.102;19.958;2023-05-29T10:47:37;98980.00;;;23.10
68510;BMP180;55512;50.102;19.958;2023-05-29T10:50:04;98973.00;;;23.10
68510;BMP180;55512;50.102;19.958;2023-05-29T10:52:34;98969.40;;;23.20
68510;BMP180;55512;50.102;19.958;2023-05-29T10:55:01;98973.00;;;23.30
68510;BMP180;55512;50.102;19.958;2023-05-29T10:57:29;98971.80;;;23.30
68510;BMP180;55512;50.102;19.958;2023-05-29T11:00:07;98970.40;;;23.30
68510;BMP180;55512;50.102;19.958;2023-05-29T11:02:39;98971.20;;;23.30
68510;BMP180;55512;50.102;19.958;2023-05-29T11:05:18;98977.80;;;23.40
68510;BMP180;55512;50.102;19.958;2023-05-29T11:07:59;98975.40;;;23.40
68510;BMP180;55512;50.102;19.958;2023-05-29T11:10:42;98973.80;;;23.50
68510;BMP180;55512;50.102;19.958;2023-05-29T11:13:24;98974.20;;;23.54
68510;BMP180;55512;50.102;19.958;2023-05-29T11:18:51;98973.40;;;23.80
68510;BMP180;55512;50.102;19.958;2023-05-29T11:24:26;98973.20;;;24.00
68510;BMP180;55512;50.102;19.958;2023-05-29T11:26:55;98970.80;;;24.06
68510;BMP180;55512;50.102;19.958;2023-05-29T11:29:24;98973.40;;;24.10
68510;BMP180;55512;50.102;19.958;2023-05-29T11:31:58;98975.60;;;24.20
68510;BMP180;55512;50.102;19.958;2023-05-29T11:34:27;98969.80;;;24.20
68510;BMP180;55512;50.102;19.958;2023-05-29T11:36:53;98969.60;;;24.20
68510;BMP180;55512;50.102;19.958;2023-05-29T11:39:19;98972.20;;;24.10
68510;BMP180;55512;50.102;19.958;2023-05-29T11:41:50;98967.40;;;24.10
68510;BMP180;55512;50.102;19.958;2023-05-29T11:44:15;98968.20;;;24.00
68510;BMP180;55512;50.102;19.958;2023-05-29T11:46:41;98965.60;;;24.00
68510;BMP180;55512;50.102;19.958;2023-05-29T11:49:06;98965.20;;;23.92
68510;BMP180;55512;50.102;19.958;2023-05-29T11:51:32;98964.20;;;23.98
68510;BMP180;55512;50.102;19.958;2023-05-29T11:53:57;98966.20;;;24.08
68510;BMP180;55512;50.102;19.958;2023-05-29T11:56:25;98966.20;;;24.20
68510;BMP180;55512;50.102;19.958;2023-05-29T11:58:51;98965.00;;;24.30
68510;BMP180;55512;50.102;19.958;2023-05-29T12:01:22;98956.80;;;24.40
68510;BMP180;55512;50.102;19.958;2023-05-29T12:03:49;98954.60;;;24.52
68510;BMP180;55512;50.102;19.958;2023-05-29T12:06:15;98960.20;;;24.70
68510;BMP180;55512;50.102;19.958;2023-05-29T12:08:41;98954.40;;;24.80
68510;BMP180;55512;50.102;19.958;2023-05-29T12:11:23;98951.20;;;24.80
68510;BMP180;55512;50.102;19.958;2023-05-29T12:13:56;98946.40;;;24.70
68510;BMP180;55512;50.102;19.958;2023-05-29T12:16:22;98942.20;;;24.80
68510;BMP180;55512;50.102;19.958;2023-05-29T12:18:48;98944.60;;;24.90
68510;BMP180;55512;50.102;19.958;2023-05-29T12:21:14;98942.60;;;24.90
68510;BMP180;55512;50.102;19.958;2023-05-29T12:23:39;98939.20;;;24.90
68510;BMP180;55512;50.102;19.958;2023-05-29T12:26:05;98940.40;;;24.90
68510;BMP180;55512;50.102;19.958;2023-05-29T12:28:31;98938.00;;;24.90
68510;BMP180;55512;50.102;19.958;2023-05-29T12:30:59;98940.00;;;24.90
68510;BMP180;55512;50.102;19.958;2023-05-29T12:33:31;98937.00;;;24.90
68510;BMP180;55512;50.102;19.958;2023-05-29T12:36:05;98937.80;;;24.90
68510;BMP180;55512;50.102;19.958;2023-05-29T12:38:32;98945.40;;;24.90
68510;BMP180;55512;50.102;19.958;2023-05-29T12:40:58;98935.60;;;24.90
68510;BMP180;55512;50.102;19.958;2023-05-29T12:43:23;98934.60;;;24.98
68510;BMP180;55512;50.102;19.958;2023-05-29T12:45:56;98934.80;;;25.00
68510;BMP180;55512;50.102;19.958;2023-05-29T12:48:27;98927.80;;;25.06
68510;BMP180;55512;50.102;19.958;2023-05-29T12:50:52;98937.60;;;25.20
68510;BMP180;55512;50.102;19.958;2023-05-29T12:53:18;98925.80;;;25.28
68510;BMP180;55512;50.102;19.958;2023-05-29T12:55:47;98921.60;;;25.40
68510;BMP180;55512;50.102;19.958;2023-05-29T12:58:15;98925.60;;;25.40
68510;BMP180;55512;50.102;19.958;2023-05-29T13:00:43;98924.60;;;25.40
68510;BMP180;55512;50.102;19.958;2023-05-29T13:03:09;98926.40;;;25.50
68510;BMP180;55512;50.102;19.958;2023-05-29T13:05:36;98927.60;;;25.40
68510;BMP180;55512;50.102;19.958;2023-05-29T13:08:03;98929.60;;;25.40
68510;BMP180;55512;50.102;19.958;2023-05-29T13:10:31;98923.80;;;25.32
68510;BMP180;55512;50.102;19.958;2023-05-29T13:12:56;98918.60;;;25.30
68510;BMP180;55512;50.102;19.958;2023-05-29T13:15:25;98920.80;;;25.36
68510;BMP180;55512;50.102;19.958;2023-05-29T13:17:52;98915.80;;;25.50
68510;BMP180;55512;50.102;19.958;2023-05-29T13:20:19;98917.80;;;25.60
68510;BMP180;55512;50.102;19.958;2023-05-29T13:22:47;98913.20;;;25.80
68510;BMP180;55512;50.102;19.958;2023-05-29T13:25:15;98910.40;;;26.02
68510;BMP180;55512;50.102;19.958;2023-05-29T13:27:45;98913.20;;;26.20
68510;BMP180;55512;50.102;19.958;2023-05-29T13:30:13;98911.00;;;26.20
68510;BMP180;55512;50.102;19.958;2023-05-29T13:32:38;98914.60;;;26.20
68510;BMP180;55512;50.102;19.958;2023-05-29T13:35:04;98911.00;;;26.20
68510;BMP180;55512;50.102;19.958;2023-05-29T13:37:30;98905.60;;;26.24
68510;BMP180;55512;50.102;19.958;2023-05-29T13:39:56;98908.40;;;26.30
68510;BMP180;55512;50.102;19.958;2023-05-29T13:42:22;98904.40;;;26.30
68510;BMP180;55512;50.102;19.958;2023-05-29T13:44:48;98891.60;;;26.30
68510;BMP180;55512;50.102;19.958;2023-05-29T13:47:14;98896.60;;;26.20
68510;BMP180;55512;50.102;19.958;2023-05-29T13:49:40;98897.40;;;26.20
68510;BMP180;55512;50.102;19.958;2023-05-29T13:52:06;98898.60;;;26.20
68510;BMP180;55512;50.102;19.958;2023-05-29T13:54:32;98893.60;;;26.34
68510;BMP180;55512;50.102;19.958;2023-05-29T13:57:04;98897.20;;;26.40
68510;BMP180;55512;50.102;19.958;2023-05-29T13:59:34;98889.20;;;26.40
68510;BMP180;55512;50.102;19.958;2023-05-29T14:02:00;98889.80;;;26.50
68510;BMP180;55512;50.102;19.958;2023-05-29T14:04:26;98887.00;;;26.50
68510;BMP180;55512;50.102;19.958;2023-05-29T14:06:52;98889.40;;;26.40
68510;BMP180;55512;50.102;19.958;2023-05-29T14:09:18;98886.60;;;26.40
68510;BMP180;55512;50.102;19.958;2023-05-29T14:11:56;98887.20;;;26.30
68510;BMP180;55512;50.102;19.958;2023-05-29T14:14:22;98888.80;;;26.40
68510;BMP180;55512;50.102;19.958;2023-05-29T14:16:48;98890.80;;;26.52
68510;BMP180;55512;50.102;19.958;2023-05-29T14:19:14;98883.00;;;26.70